Time;durP1;ratioP1;P1;durP2;ratioP2;P2;SDS_P1;SDS_P2;PMS_P1;PMS_P2;Temp;Humidity;BMP_temperature;BMP_pressure;BME280_temperature;BME280_humidity;BME280_pressure;Samples;Min_cycle;Max_cycle;Signal;HPM_P1;HPM_P2
2023/04/16 00:00:02;;;;;;;72.80;32.07;;;;;;;;;;5074096;28;20193;-66
2023/04/16 00:02:29;;;;;;;62.80;31.88;;;;;;;;;;5073864;28;20487;-67
2023/04/16 00:04:56;;;;;;;62.15;32.17;;;;;;;;;;5074065;28;20190;-67
2023/04/16 00:07:24;;;;;;;73.57;31.75;;;;;;;;;;5074056;28;20225;-66
2023/04/16 00:09:52;;;;;;;80.70;35.42;;;;;;;;;;5073658;28;20201;-68
2023/04/16 00:12:19;;;;;;;65.78;30.85;;;;;;;;;;5073872;28;20201;-67
2023/04/16 00:14:46;;;;;;;95.18;33.28;;;;;;;;;;5073608;28;20225;-67
2023/04/16 00:17:13;;;;;;;76.65;33.75;;;;;;;;;;5073784;28;20201;-67
2023/04/16 00:19:42;;;;;;;73.40;33.70;;;;;;;;;;5073872;28;20285;-67
2023/04/16 00:22:10;;;;;;;88.47;34.78;;;;;;;;;;5073684;28;20197;-67
2023/04/16 00:24:38;;;;;;;69.13;33.92;;;;;;;;;;5073765;28;20197;-67
2023/04/16 00:27:08;;;;;;;79.57;37.22;;;;;;;;;;5073594;28;20545;-67
2023/04/16 00:29:35;;;;;;;81.25;35.00;;;;;;;;;;5073418;28;20201;-67
2023/04/16 00:32:02;;;;;;;81.73;35.57;;;;;;;;;;5073575;28;20640;-67
2023/04/16 00:34:30;;;;;;;79.18;34.55;;;;;;;;;;5074024;28;20535;-67
2023/04/16 00:36:57;;;;;;;85.10;37.05;;;;;;;;;;5073653;28;20213;-67
2023/04/16 00:39:24;;;;;;;80.15;34.72;;;;;;;;;;5073615;28;20204;-67
2023/04/16 00:41:52;;;;;;;76.67;35.73;;;;;;;;;;5073498;28;20573;-67
2023/04/16 00:44:20;;;;;;;82.75;38.92;;;;;;;;;;5073110;28;20453;-67
2023/04/16 00:46:47;;;;;;;80.45;38.15;;;;;;;;;;5073042;28;20210;-67
2023/04/16 00:49:14;;;;;;;89.60;34.88;;;;;;;;;;5073524;28;20193;-67
2023/04/16 00:51:42;;;;;;;60.58;34.00;;;;;;;;;;5073397;28;20200;-67
2023/04/16 00:54:09;;;;;;;78.43;37.20;;;;;;;;;;5073799;28;20197;-67
2023/04/16 00:56:36;;;;;;;83.40;39.27;;;;;;;;;;5073059;28;20204;-67
2023/04/16 00:59:05;;;;;;;90.40;37.70;;;;;;;;;;5073419;28;20463;-67
2023/04/16 01:01:32;;;;;;;81.93;35.33;;;;;;;;;;5072921;28;20926;-67
2023/04/16 01:03:59;;;;;;;88.32;38.08;;;;;;;;;;5072820;28;20238;-67
2023/04/16 01:06:26;;;;;;;82.78;37.70;;;;;;;;;;5073614;28;20195;-68
2023/04/16 01:08:53;;;;;;;85.97;38.97;;;;;;;;;;5073445;28;20217;-67
2023/04/16 01:11:21;;;;;;;92.10;39.97;;;;;;;;;;5073510;28;20200;-67
2023/04/16 01:13:48;;;;;;;87.03;40.00;;;;;;;;;;5073311;28;20198;-67
2023/04/16 01:16:16;;;;;;;100.80;40.72;;;;;;;;;;5073326;28;20571;-67
2023/04/16 01:18:44;;;;;;;105.97;40.50;;;;;;;;;;5073712;28;20197;-66
2023/04/16 01:21:12;;;;;;;107.20;41.25;;;;;;;;;;5073111;28;20451;-66
2023/04/16 01:23:39;;;;;;;84.00;41.10;;;;;;;;;;5073176;28;20198;-66
2023/04/16 01:26:06;;;;;;;77.55;39.85;;;;;;;;;;5072714;28;20247;-67
2023/04/16 01:28:34;;;;;;;85.20;37.95;;;;;;;;;;5072777;28;20225;-67
2023/04/16 01:31:01;;;;;;;86.07;39.63;;;;;;;;;;5072783;28;20278;-67
2023/04/16 01:33:28;;;;;;;85.35;38.33;;;;;;;;;;5072703;28;20201;-66
2023/04/16 01:35:55;;;;;;;87.25;39.85;;;;;;;;;;5073103;28;20611;-66
2023/04/16 01:38:24;;;;;;;80.57;40.58;;;;;;;;;;5072944;28;20205;-66
2023/04/16 01:40:51;;;;;;;82.70;39.00;;;;;;;;;;5072718;28;20205;-66
2023/04/16 01:43:18;;;;;;;63.13;36.40;;;;;;;;;;5072607;28;20203;-66
2023/04/16 01:45:45;;;;;;;79.63;39.53;;;;;;;;;;5072647;28;20464;-66
2023/04/16 01:48:13;;;;;;;88.90;39.35;;;;;;;;;;5072476;28;20475;-67
2023/04/16 01:50:40;;;;;;;70.22;38.35;;;;;;;;;;5072925;28;20198;-67
2023/04/16 01:53:08;;;;;;;78.38;39.50;;;;;;;;;;5072856;28;20260;-67
2023/04/16 01:55:37;;;;;;;63.42;34.00;;;;;;;;;;5072675;28;20660;-67
2023/04/16 01:58:06;;;;;;;74.05;40.20;;;;;;;;;;5076702;28;20194;-67
2023/04/16 02:00:34;;;;;;;72.60;40.10;;;;;;;;;;5076501;28;20202;-66
2023/04/16 02:03:01;;;;;;;67.68;37.58;;;;;;;;;;5076469;28;20559;-66
2023/04/16 02:05:28;;;;;;;76.50;39.50;;;;;;;;;;5076438;28;20198;-66
2023/04/16 02:07:55;;;;;;;70.75;39.35;;;;;;;;;;5075882;28;20313;-66
2023/04/16 02:10:22;;;;;;;81.27;40.53;;;;;;;;;;5076388;28;20194;-66
2023/04/16 02:12:51;;;;;;;71.75;37.17;;;;;;;;;;5076107;28;20531;-66
2023/04/16 02:15:18;;;;;;;80.97;40.67;;;;;;;;;;5076197;28;20194;-66
2023/04/16 02:17:47;;;;;;;84.10;40.77;;;;;;;;;;5076074;28;20690;-66
2023/04/16 02:20:14;;;;;;;83.05;40.75;;;;;;;;;;5076439;28;20440;-66
2023/04/16 02:22:42;;;;;;;81.22;43.83;;;;;;;;;;5076009;28;20205;-66
2023/04/16 02:25:09;;;;;;;78.35;41.40;;;;;;;;;;5076566;28;20251;-66
2023/04/16 02:27:36;;;;;;;76.10;39.60;;;;;;;;;;5075591;28;20706;-66
2023/04/16 02:30:06;;;;;;;79.18;42.05;;;;;;;;;;5075656;28;20206;-66
2023/04/16 02:32:33;;;;;;;83.85;44.05;;;;;;;;;;5076020;28;20197;-67
2023/04/16 02:35:02;;;;;;;76.78;39.38;;;;;;;;;;5075617;28;20198;-66
2023/04/16 02:37:29;;;;;;;76.35;38.83;;;;;;;;;;5075749;28;20198;-66
2023/04/16 02:39:57;;;;;;;78.07;42.35;;;;;;;;;;5075819;28;20194;-66
2023/04/16 02:42:24;;;;;;;74.28;41.88;;;;;;;;;;5075859;28;20208;-66
2023/04/16 02:44:51;;;;;;;69.90;41.40;;;;;;;;;;5075675;28;20197;-66
2023/04/16 02:47:19;;;;;;;77.03;43.77;;;;;;;;;;5075439;28;20483;-66
2023/04/16 02:49:47;;;;;;;68.43;39.37;;;;;;;;;;5075274;28;20952;-66
2023/04/16 02:52:14;;;;;;;71.57;39.50;;;;;;;;;;5075488;28;20818;-66
2023/04/16 02:54:41;;;;;;;63.90;38.47;;;;;;;;;;5075485;28;20200;-66
2023/04/16 02:57:08;;;;;;;64.15;39.00;;;;;;;;;;5075848;28;20441;-67
2023/04/16 02:59:35;;;;;;;73.50;40.83;;;;;;;;;;5075395;28;20205;-66
2023/04/16 03:02:03;;;;;;;64.07;41.33;;;;;;;;;;5075650;28;20200;-66
2023/04/16 03:04:33;;;;;;;71.80;40.75;;;;;;;;;;5075402;28;20584;-66
2023/04/16 03:07:00;;;;;;;76.78;39.97;;;;;;;;;;5074329;28;20183;-66
2023/04/16 03:09:27;;;;;;;78.15;43.70;;;;;;;;;;5074611;28;20252;-66
2023/04/16 03:11:55;;;;;;;76.32;40.67;;;;;;;;;;5075126;28;20197;-66
2023/04/16 03:14:22;;;;;;;75.95;39.97;;;;;;;;;;5075133;28;20566;-66
2023/04/16 03:16:50;;;;;;;81.55;39.67;;;;;;;;;;5075216;28;20657;-66
2023/04/16 03:19:17;;;;;;;63.37;38.30;;;;;;;;;;5074633;28;20209;-66
2023/04/16 03:21:45;;;;;;;63.10;37.93;;;;;;;;;;5074607;28;20447;-66
2023/04/16 03:24:13;;;;;;;78.05;41.13;;;;;;;;;;5074549;28;20960;-66
2023/04/16 03:26:40;;;;;;;69.33;40.67;;;;;;;;;;5075015;28;20194;-66
2023/04/16 03:29:07;;;;;;;63.28;40.45;;;;;;;;;;5074819;28;20483;-66
2023/04/16 03:31:34;;;;;;;68.30;39.28;;;;;;;;;;5074455;28;20194;-65
2023/04/16 03:34:02;;;;;;;62.88;37.85;;;;;;;;;;5074267;28;20194;-66
2023/04/16 03:36:29;;;;;;;66.33;42.27;;;;;;;;;;5074814;28;20255;-66
2023/04/16 03:38:58;;;;;;;61.80;41.57;;;;;;;;;;5074718;28;20452;-66
2023/04/16 03:41:25;;;;;;;73.75;41.85;;;;;;;;;;5074232;28;20453;-66
2023/04/16 03:43:53;;;;;;;75.32;39.00;;;;;;;;;;5074513;28;20553;-67
2023/04/16 03:46:20;;;;;;;74.10;41.70;;;;;;;;;;5074508;28;20190;-67
2023/04/16 03:48:47;;;;;;;59.90;40.80;;;;;;;;;;5078361;28;20475;-67
2023/04/16 03:51:14;;;;;;;60.37;36.80;;;;;;;;;;5094319;28;20535;-67
2023/04/16 03:53:42;;;;;;;52.85;36.88;;;;;;;;;;5094204;28;20530;-67
2023/04/16 03:56:10;;;;;;;63.97;39.83;;;;;;;;;;5094237;28;20207;-67
2023/04/16 03:58:37;;;;;;;64.95;39.03;;;;;;;;;;5094395;28;20542;-67
2023/04/16 04:01:04;;;;;;;65.00;39.30;;;;;;;;;;5094496;28;20559;-67
2023/04/16 04:03:32;;;;;;;62.92;38.28;;;;;;;;;;5093662;28;20229;-67
2023/04/16 04:05:59;;;;;;;57.92;40.03;;;;;;;;;;5094083;28;20193;-67
2023/04/16 04:08:26;;;;;;;62.08;37.67;;;;;;;;;;5093829;28;20218;-67
2023/04/16 04:10:53;;;;;;;54.90;34.00;;;;;;;;;;5094361;28;20546;-67
2023/04/16 04:13:22;;;;;;;64.28;43.65;;;;;;;;;;5094485;28;20802;-68
2023/04/16 04:15:49;;;;;;;63.77;38.10;;;;;;;;;;5094088;28;20197;-67
2023/04/16 04:18:16;;;;;;;58.40;36.83;;;;;;;;;;5093034;28;20482;-67
2023/04/16 04:20:44;;;;;;;55.85;38.85;;;;;;;;;;5093761;28;20200;-67
2023/04/16 04:23:12;;;;;;;64.38;40.33;;;;;;;;;;5094026;28;20189;-66
2023/04/16 04:25:39;;;;;;;56.13;39.28;;;;;;;;;;5093962;28;20200;-65
2023/04/16 04:28:06;;;;;;;58.85;39.00;;;;;;;;;;5094081;28;20224;-66
2023/04/16 04:30:35;;;;;;;60.60;38.45;;;;;;;;;;5093823;28;20190;-65
2023/04/16 04:33:02;;;;;;;59.88;39.25;;;;;;;;;;5094051;28;20247;-67
2023/04/16 04:35:30;;;;;;;51.08;34.85;;;;;;;;;;5093798;28;20193;-66
2023/04/16 04:37:57;;;;;;;63.90;39.03;;;;;;;;;;5094276;28;20224;-66
2023/04/16 04:40:24;;;;;;;59.65;36.40;;;;;;;;;;5094128;28;20196;-66
2023/04/16 04:42:51;;;;;;;55.25;35.30;;;;;;;;;;5094092;28;20225;-67
2023/04/16 04:45:18;;;;;;;57.55;36.17;;;;;;;;;;5093727;28;20197;-67
2023/04/16 04:47:47;;;;;;;52.17;34.33;;;;;;;;;;5093786;28;20224;-66
2023/04/16 04:50:14;;;;;;;47.72;33.22;;;;;;;;;;5093569;28;20550;-66
2023/04/16 04:52:41;;;;;;;53.33;32.55;;;;;;;;;;5093511;28;20202;-68
2023/04/16 04:55:09;;;;;;;54.10;35.78;;;;;;;;;;5093602;28;20197;-67
2023/04/16 04:57:36;;;;;;;52.00;34.17;;;;;;;;;;5093579;28;20194;-67
2023/04/16 05:00:04;;;;;;;51.20;34.67;;;;;;;;;;5093206;28;20228;-67
2023/04/16 05:02:31;;;;;;;49.40;34.20;;;;;;;;;;5093028;28;20193;-66
2023/04/16 05:04:59;;;;;;;53.92;35.42;;;;;;;;;;5093525;28;20185;-66
2023/04/16 05:07:26;;;;;;;49.10;34.88;;;;;;;;;;5093362;28;20300;-66
2023/04/16 05:09:54;;;;;;;53.25;35.78;;;;;;;;;;5093507;28;20244;-65
2023/04/16 05:12:21;;;;;;;58.65;37.33;;;;;;;;;;5093327;28;20235;-65
2023/04/16 05:14:48;;;;;;;57.08;36.10;;;;;;;;;;5093007;28;20197;-65
2023/04/16 05:17:15;;;;;;;57.40;35.53;;;;;;;;;;5093819;28;20376;-66
2023/04/16 05:19:42;;;;;;;56.05;36.22;;;;;;;;;;5093530;28;20204;-66
2023/04/16 05:22:11;;;;;;;50.45;34.60;;;;;;;;;;5093366;28;20215;-66
2023/04/16 05:24:38;;;;;;;49.25;36.03;;;;;;;;;;5093258;28;20270;-66
2023/04/16 05:27:05;;;;;;;53.97;37.97;;;;;;;;;;5093172;28;20205;-66
2023/04/16 05:29:32;;;;;;;50.13;34.85;;;;;;;;;;5093183;28;20475;-66
2023/04/16 05:32:00;;;;;;;56.13;36.15;;;;;;;;;;5096142;28;20193;-66
2023/04/16 05:34:28;;;;;;;50.75;36.13;;;;;;;;;;5096793;28;20288;-66
2023/04/16 05:36:55;;;;;;;47.47;34.72;;;;;;;;;;5097654;28;20194;-66
2023/04/16 05:39:23;;;;;;;51.40;36.17;;;;;;;;;;5097327;28;20204;-66
2023/04/16 05:41:51;;;;;;;49.35;33.45;;;;;;;;;;5097050;28;20288;-66
2023/04/16 05:44:18;;;;;;;55.97;36.75;;;;;;;;;;5096848;28;20655;-66
2023/04/16 05:46:45;;;;;;;59.45;37.17;;;;;;;;;;5096543;28;20201;-66
2023/04/16 05:49:12;;;;;;;56.42;36.80;;;;;;;;;;5096465;28;20210;-67
2023/04/16 05:51:39;;;;;;;52.58;37.25;;;;;;;;;;5096836;28;20193;-67
2023/04/16 05:54:06;;;;;;;57.17;36.20;;;;;;;;;;5097189;28;20200;-66
2023/04/16 05:56:35;;;;;;;58.85;38.65;;;;;;;;;;5096677;28;20441;-66
2023/04/16 05:59:02;;;;;;;62.30;42.95;;;;;;;;;;5096436;28;20198;-66
2023/04/16 06:01:30;;;;;;;59.80;37.88;;;;;;;;;;5096703;28;20189;-66
2023/04/16 06:03:57;;;;;;;60.22;43.03;;;;;;;;;;5096207;28;20234;-66
2023/04/16 06:06:26;;;;;;;56.70;38.95;;;;;;;;;;5096539;28;20196;-66
2023/04/16 06:08:53;;;;;;;63.58;42.78;;;;;;;;;;5096496;28;20217;-66
2023/04/16 06:11:20;;;;;;;69.25;44.60;;;;;;;;;;5096504;28;20194;-66
2023/04/16 06:13:49;;;;;;;64.30;42.35;;;;;;;;;;5096082;28;20194;-66
2023/04/16 06:16:16;;;;;;;61.03;42.95;;;;;;;;;;5096364;28;20288;-66
2023/04/16 06:18:43;;;;;;;67.35;42.55;;;;;;;;;;5096289;28;20189;-66
2023/04/16 06:21:10;;;;;;;62.05;40.95;;;;;;;;;;5096473;28;20200;-66
2023/04/16 06:23:37;;;;;;;57.10;39.03;;;;;;;;;;5096340;28;20226;-66
2023/04/16 06:26:05;;;;;;;71.33;40.50;;;;;;;;;;5096084;28;20220;-66
2023/04/16 06:28:32;;;;;;;58.30;38.70;;;;;;;;;;5095827;28;20987;-67
2023/04/16 06:31:01;;;;;;;54.17;38.90;;;;;;;;;;5096126;28;20558;-67
2023/04/16 06:33:28;;;;;;;60.33;41.08;;;;;;;;;;5096216;28;20204;-67
2023/04/16 06:35:55;;;;;;;53.55;37.00;;;;;;;;;;5095765;28;20673;-67
2023/04/16 06:38:23;;;;;;;54.70;39.67;;;;;;;;;;5095534;28;20647;-66
2023/04/16 06:40:50;;;;;;;52.22;37.15;;;;;;;;;;5095833;28;20526;-66
2023/04/16 06:43:17;;;;;;;63.97;40.42;;;;;;;;;;5096079;28;20193;-66
2023/04/16 06:45:44;;;;;;;59.17;39.92;;;;;;;;;;5095332;28;20198;-66
2023/04/16 06:48:13;;;;;;;54.35;39.80;;;;;;;;;;5096067;28;20193;-66
2023/04/16 06:50:42;;;;;;;63.97;39.55;;;;;;;;;;5095635;28;20189;-69
2023/04/16 06:53:09;;;;;;;60.88;44.30;;;;;;;;;;5095709;28;20197;-66
2023/04/16 06:55:37;;;;;;;56.20;39.90;;;;;;;;;;5095644;28;20567;-67
2023/04/16 06:58:04;;;;;;;58.47;38.92;;;;;;;;;;5095712;28;20284;-67
2023/04/16 07:00:31;;;;;;;48.92;37.15;;;;;;;;;;5095503;28;20216;-68
2023/04/16 07:02:59;;;;;;;63.92;39.53;;;;;;;;;;5095380;28;20233;-68
2023/04/16 07:05:28;;;;;;;54.27;37.30;;;;;;;;;;5095525;28;20198;-68
2023/04/16 07:07:56;;;;;;;55.40;38.30;;;;;;;;;;5095301;28;20530;-69
2023/04/16 07:10:23;;;;;;;50.72;35.05;;;;;;;;;;5094975;28;20475;-68
2023/04/16 07:12:50;;;;;;;50.20;32.70;;;;;;;;;;5095280;28;20197;-68
2023/04/16 07:15:18;;;;;;;47.53;34.10;;;;;;;;;;5095520;28;20189;-69
2023/04/16 07:17:45;;;;;;;48.92;34.55;;;;;;;;;;5094906;28;20196;-68
2023/04/16 07:20:12;;;;;;;51.25;36.70;;;;;;;;;;5094790;28;20202;-68
2023/04/16 07:22:41;;;;;;;48.17;35.53;;;;;;;;;;5094965;28;20189;-68
2023/04/16 07:25:08;;;;;;;57.80;36.67;;;;;;;;;;5095001;28;20440;-68
2023/04/16 07:27:35;;;;;;;49.13;35.42;;;;;;;;;;5094257;28;20933;-68
2023/04/16 07:30:03;;;;;;;52.47;35.70;;;;;;;;;;5094902;28;20648;-67
2023/04/16 07:32:30;;;;;;;52.30;36.73;;;;;;;;;;5094956;28;20439;-68
2023/04/16 07:34:57;;;;;;;53.77;37.63;;;;;;;;;;5083890;28;20518;-68
2023/04/16 07:37:24;;;;;;;52.83;36.60;;;;;;;;;;5074201;28;20938;-68
2023/04/16 07:39:56;;;;;;;48.67;36.37;;;;;;;;;;5075173;28;20455;-68
2023/04/16 07:42:23;;;;;;;47.00;34.90;;;;;;;;;;5074689;28;20436;-69
2023/04/16 07:44:50;;;;;;;52.53;34.17;;;;;;;;;;5074119;28;20445;-68
2023/04/16 07:47:17;;;;;;;56.05;36.88;;;;;;;;;;5074381;28;20902;-68
2023/04/16 07:49:45;;;;;;;48.73;34.73;;;;;;;;;;5074308;28;20569;-67
2023/04/16 07:52:12;;;;;;;49.63;37.07;;;;;;;;;;5074176;28;20454;-68
2023/04/16 07:54:39;;;;;;;48.83;34.60;;;;;;;;;;5074345;28;20890;-68
2023/04/16 07:57:08;;;;;;;52.23;37.33;;;;;;;;;;5074419;28;20440;-68
2023/04/16 07:59:35;;;;;;;53.73;39.17;;;;;;;;;;5074120;28;20808;-68
2023/04/16 08:02:02;;;;;;;51.07;37.27;;;;;;;;;;5074362;28;20523;-68
2023/04/16 08:04:30;;;;;;;50.17;37.80;;;;;;;;;;5073464;28;20478;-68
2023/04/16 08:06:57;;;;;;;47.03;34.73;;;;;;;;;;5073941;28;20195;-69
2023/04/16 08:09:24;;;;;;;45.38;34.08;;;;;;;;;;5073946;28;20483;-68
2023/04/16 08:11:51;;;;;;;45.88;34.05;;;;;;;;;;5073846;28;20195;-68
2023/04/16 08:14:20;;;;;;;48.77;35.93;;;;;;;;;;5073853;28;20202;-67
2023/04/16 08:16:48;;;;;;;44.87;35.00;;;;;;;;;;5073982;28;20455;-68
2023/04/16 08:19:15;;;;;;;45.77;36.63;;;;;;;;;;5073863;28;20451;-68
2023/04/16 08:21:42;;;;;;;47.77;34.10;;;;;;;;;;5073348;28;20441;-68
2023/04/16 08:24:09;;;;;;;46.50;34.97;;;;;;;;;;5073831;28;20477;-67
2023/04/16 08:26:36;;;;;;;50.47;37.10;;;;;;;;;;5073635;28;20455;-68
2023/04/16 08:29:04;;;;;;;53.20;36.63;;;;;;;;;;5073225;28;20522;-67
2023/04/16 08:31:32;;;;;;;48.10;32.80;;;;;;;;;;5073540;28;20527;-68
2023/04/16 08:34:00;;;;;;;41.30;33.57;;;;;;;;;;5073820;28;20449;-68
2023/04/16 08:36:28;;;;;;;44.57;34.00;;;;;;;;;;5073755;28;20448;-68
2023/04/16 08:38:55;;;;;;;44.33;34.13;;;;;;;;;;5073438;28;20767;-67
2023/04/16 08:41:24;;;;;;;46.40;32.80;;;;;;;;;;5073395;28;20810;-67
2023/04/16 08:43:51;;;;;;;48.60;33.97;;;;;;;;;;5073398;28;20920;-76
2023/04/16 08:46:22;;;;;;;42.40;33.10;;;;;;;;;;5073153;28;20872;-67
2023/04/16 08:48:54;;;;;;;40.60;30.87;;;;;;;;;;5072947;28;20431;-67
2023/04/16 08:51:22;;;;;;;39.00;30.97;;;;;;;;;;5073086;28;20472;-68
2023/04/16 08:53:52;;;;;;;39.97;31.00;;;;;;;;;;5073428;28;20443;-72
2023/04/16 08:56:21;;;;;;;41.57;32.57;;;;;;;;;;5073334;28;20470;-67
2023/04/16 08:58:48;;;;;;;44.10;33.33;;;;;;;;;;5073185;28;20434;-68
2023/04/16 09:01:16;;;;;;;43.50;33.53;;;;;;;;;;5073337;28;20447;-68
2023/04/16 09:03:45;;;;;;;39.83;29.70;;;;;;;;;;5072903;28;20520;-68
2023/04/16 09:06:14;;;;;;;46.60;32.00;;;;;;;;;;5075951;28;20441;-67
2023/04/16 09:08:41;;;;;;;34.87;29.90;;;;;;;;;;5077278;28;20437;-68
2023/04/16 09:11:08;;;;;;;42.07;29.70;;;;;;;;;;5077229;28;20491;-67
2023/04/16 09:13:38;;;;;;;37.23;27.57;;;;;;;;;;5076937;28;20441;-68
2023/04/16 09:16:06;;;;;;;34.60;27.93;;;;;;;;;;5076983;28;20802;-67
2023/04/16 09:18:33;;;;;;;34.33;28.30;;;;;;;;;;5077100;28;20443;-67
2023/04/16 09:21:01;;;;;;;33.83;27.17;;;;;;;;;;5077123;28;20440;-67
2023/04/16 09:23:30;;;;;;;33.13;28.67;;;;;;;;;;5076737;28;20442;-67
2023/04/16 09:25:57;;;;;;;35.23;28.00;;;;;;;;;;5077111;28;20859;-67
2023/04/16 09:28:39;;;;;;;37.00;27.20;;;;;;;;;;5092317;28;20948;-68
2023/04/16 09:31:10;;;;;;;33.40;26.40;;;;;;;;;;5097171;28;20467;-67
2023/04/16 09:33:37;;;;;;;31.30;25.03;;;;;;;;;;5097047;28;20454;-68
2023/04/16 09:36:05;;;;;;;32.30;24.93;;;;;;;;;;5097069;28;20502;-68
2023/04/16 09:38:47;;;;;;;38.23;30.20;;;;;;;;;;5096791;28;20945;-67
2023/04/16 09:41:16;;;;;;;33.33;26.50;;;;;;;;;;5097513;28;20424;-67
2023/04/16 09:43:50;;;;;;;34.13;25.40;;;;;;;;;;5096739;28;20440;-67
2023/04/16 09:46:17;;;;;;;30.53;24.70;;;;;;;;;;5096893;28;20421;-66
2023/04/16 09:48:46;;;;;;;31.80;23.43;;;;;;;;;;5096850;28;20476;-66
2023/04/16 09:51:14;;;;;;;27.57;22.90;;;;;;;;;;5096306;28;20467;-67
2023/04/16 09:53:41;;;;;;;27.53;21.90;;;;;;;;;;5096781;28;20801;-67
2023/04/16 09:56:09;;;;;;;25.60;22.07;;;;;;;;;;5096308;28;20440;-67
2023/04/16 09:58:38;;;;;;;25.73;21.67;;;;;;;;;;5096189;28;20943;-67
2023/04/16 10:01:07;;;;;;;26.80;23.37;;;;;;;;;;5096884;28;20449;-67
2023/04/16 10:03:35;;;;;;;28.00;21.87;;;;;;;;;;5096040;28;20531;-67
2023/04/16 10:06:07;;;;;;;24.87;20.83;;;;;;;;;;5096725;28;20441;-67
2023/04/16 10:08:35;;;;;;;23.43;19.37;;;;;;;;;;5096272;28;20428;-67
2023/04/16 10:11:02;;;;;;;23.70;20.83;;;;;;;;;;5096661;28;20485;-67
2023/04/16 10:13:30;;;;;;;23.60;19.83;;;;;;;;;;5096073;28;20449;-67
2023/04/16 10:15:59;;;;;;;27.40;21.83;;;;;;;;;;5096289;28;20512;-67
2023/04/16 10:18:26;;;;;;;28.70;20.70;;;;;;;;;;5095684;28;20442;-67
2023/04/16 10:20:53;;;;;;;22.83;19.10;;;;;;;;;;5095982;28;20463;-67
2023/04/16 10:23:21;;;;;;;26.43;20.67;;;;;;;;;;5095922;28;20452;-67
2023/04/16 10:25:48;;;;;;;22.83;18.63;;;;;;;;;;5096340;28;20517;-67
2023/04/16 10:28:16;;;;;;;20.10;17.93;;;;;;;;;;5095769;28;20446;-67
2023/04/16 10:30:51;;;;;;;22.70;18.60;;;;;;;;;;5095393;28;20838;-67
2023/04/16 10:33:20;;;;;;;19.73;17.47;;;;;;;;;;5096330;28;20452;-67
2023/04/16 10:35:47;;;;;;;21.37;18.80;;;;;;;;;;5095846;28;20444;-67
2023/04/16 10:38:22;;;;;;;20.30;16.70;;;;;;;;;;5096008;28;20506;-67
2023/04/16 10:40:50;;;;;;;19.53;16.50;;;;;;;;;;5095936;28;20438;-67
2023/04/16 10:43:18;;;;;;;18.80;16.90;;;;;;;;;;5096649;28;20444;-67
2023/04/16 10:45:46;;;;;;;19.77;16.83;;;;;;;;;;5095750;28;20446;-67
2023/04/16 10:48:15;;;;;;;21.20;16.13;;;;;;;;;;5096078;28;20437;-67
2023/04/16 10:50:44;;;;;;;16.50;14.80;;;;;;;;;;5095571;28;20534;-67
2023/04/16 10:53:21;;;;;;;25.10;15.50;;;;;;;;;;5095489;28;20962;-67
2023/04/16 10:55:57;;;;;;;16.00;14.17;;;;;;;;;;5095411;28;20468;-68
2023/04/16 10:58:30;;;;;;;18.73;14.30;;;;;;;;;;5095552;28;20446;-67
2023/04/16 11:01:00;;;;;;;19.43;13.10;;;;;;;;;;5095120;28;20452;-67
2023/04/16 11:03:31;;;;;;;15.53;13.93;;;;;;;;;;5095823;28;20474;-67
2023/04/16 11:06:12;;;;;;;14.83;13.30;;;;;;;;;;5095644;28;20427;-67
2023/04/16 11:08:39;;;;;;;16.00;14.33;;;;;;;;;;5095560;28;20449;-67
2023/04/16 11:11:07;;;;;;;16.80;15.00;;;;;;;;;;5094909;28;20536;-67
2023/04/16 11:13:35;;;;;;;16.00;14.00;;;;;;;;;;5094945;28;20928;-67
2023/04/16 11:16:03;;;;;;;17.37;13.97;;;;;;;;;;5095050;28;20449;-67
2023/04/16 11:18:30;;;;;;;17.73;12.63;;;;;;;;;;5094857;28;20441;-67
2023/04/16 11:20:57;;;;;;;13.97;12.53;;;;;;;;;;5095118;28;20803;-68
2023/04/16 11:23:26;;;;;;;12.67;11.30;;;;;;;;;;5094829;28;20449;-67
2023/04/16 11:25:56;;;;;;;18.77;12.97;;;;;;;;;;5095013;28;20444;-67
2023/04/16 11:28:32;;;;;;;15.33;12.13;;;;;;;;;;5093638;28;20955;-67
2023/04/16 11:30:59;;;;;;;13.63;11.80;;;;;;;;;;5094850;28;20971;-67
2023/04/16 11:33:27;;;;;;;18.10;12.43;;;;;;;;;;5095030;28;20445;-67
2023/04/16 11:35:58;;;;;;;12.90;11.57;;;;;;;;;;5094913;28;20445;-67
2023/04/16 11:38:35;;;;;;;14.00;12.50;;;;;;;;;;5094875;28;20526;-68
2023/04/16 11:41:02;;;;;;;17.10;13.33;;;;;;;;;;5094768;28;20430;-67
2023/04/16 11:43:29;;;;;;;14.30;12.10;;;;;;;;;;5094350;28;20452;-67
2023/04/16 11:45:57;;;;;;;14.20;12.67;;;;;;;;;;5095068;28;20443;-67
2023/04/16 11:48:24;;;;;;;12.63;10.33;;;;;;;;;;5094680;28;20441;-68
2023/04/16 11:50:56;;;;;;;12.93;11.53;;;;;;;;;;5094222;28;20934;-67
2023/04/16 11:53:24;;;;;;;11.60;10.50;;;;;;;;;;5094136;28;20423;-67
2023/04/16 11:55:52;;;;;;;13.23;11.83;;;;;;;;;;5094067;28;20457;-67
2023/04/16 11:58:21;;;;;;;14.23;10.63;;;;;;;;;;5094867;28;20532;-67
2023/04/16 12:00:52;;;;;;;13.33;11.93;;;;;;;;;;5094022;28;20453;-67
2023/04/16 12:03:19;;;;;;;12.40;11.10;;;;;;;;;;5094013;28;20470;-67
2023/04/16 12:05:48;;;;;;;12.90;11.60;;;;;;;;;;5094403;28;20882;-67
2023/04/16 12:08:28;;;;;;;14.73;12.67;;;;;;;;;;5094028;28;20481;-67
2023/04/16 12:10:58;;;;;;;13.17;11.87;;;;;;;;;;5094032;28;20468;-67
2023/04/16 12:13:25;;;;;;;15.13;12.90;;;;;;;;;;5094241;28;20439;-67
2023/04/16 12:15:54;;;;;;;16.50;14.17;;;;;;;;;;5094165;28;20451;-68
2023/04/16 12:18:22;;;;;;;14.20;12.77;;;;;;;;;;5094119;28;20469;-67
2023/04/16 12:20:50;;;;;;;15.93;12.90;;;;;;;;;;5093666;28;20467;-67
2023/04/16 12:23:25;;;;;;;17.20;13.37;;;;;;;;;;5093692;28;20495;-68
2023/04/16 12:25:52;;;;;;;20.93;15.00;;;;;;;;;;5094350;28;20442;-67
2023/04/16 12:28:29;;;;;;;19.93;15.37;;;;;;;;;;5093872;28;20440;-67
2023/04/16 12:30:56;;;;;;;19.13;15.27;;;;;;;;;;5093886;28;20897;-67
2023/04/16 12:33:23;;;;;;;18.43;16.50;;;;;;;;;;5093660;28;20454;-69
2023/04/16 12:35:51;;;;;;;20.10;16.60;;;;;;;;;;5094133;28;20445;-67
2023/04/16 12:38:18;;;;;;;17.43;15.00;;;;;;;;;;5093933;28;20446;-68
2023/04/16 12:40:45;;;;;;;20.63;17.10;;;;;;;;;;5093687;28;20861;-68
2023/04/16 12:43:13;;;;;;;18.70;15.20;;;;;;;;;;5093697;28;20448;-68
2023/04/16 12:45:41;;;;;;;21.17;17.20;;;;;;;;;;5093159;28;20442;-68
2023/04/16 12:48:09;;;;;;;18.13;15.33;;;;;;;;;;5094088;28;20540;-68
2023/04/16 12:50:38;;;;;;;18.27;16.30;;;;;;;;;;5093412;28;20473;-68
2023/04/16 12:53:05;;;;;;;21.70;18.03;;;;;;;;;;5093219;28;20449;-67
2023/04/16 12:55:32;;;;;;;22.50;17.83;;;;;;;;;;5093460;28;20443;-70
2023/04/16 12:57:59;;;;;;;23.83;16.43;;;;;;;;;;5093638;28;20459;-68
2023/04/16 13:00:27;;;;;;;19.33;17.23;;;;;;;;;;5093210;28;20568;-68
2023/04/16 13:02:55;;;;;;;23.60;17.47;;;;;;;;;;5093182;28;20475;-67
2023/04/16 13:05:22;;;;;;;25.13;18.90;;;;;;;;;;5093460;28;20438;-67
2023/04/16 13:07:49;;;;;;;22.73;17.97;;;;;;;;;;5093380;28;20443;-68
2023/04/16 13:10:17;;;;;;;23.70;16.80;;;;;;;;;;5093289;28;20442;-68
2023/04/16 13:12:45;;;;;;;20.30;16.57;;;;;;;;;;5093449;28;20448;-68
2023/04/16 13:15:12;;;;;;;21.67;18.20;;;;;;;;;;5093351;28;20447;-68
2023/04/16 13:17:39;;;;;;;20.23;17.30;;;;;;;;;;5092980;28;20442;-67
2023/04/16 13:20:08;;;;;;;20.70;17.87;;;;;;;;;;5093026;28;20539;-67
2023/04/16 13:22:36;;;;;;;18.57;16.67;;;;;;;;;;5092852;28;20445;-68
2023/04/16 13:25:03;;;;;;;21.17;16.87;;;;;;;;;;5093571;28;20449;-67
2023/04/16 13:27:30;;;;;;;25.33;17.93;;;;;;;;;;5093259;28;20796;-68
2023/04/16 13:29:58;;;;;;;18.87;16.60;;;;;;;;;;5093255;28;20442;-68
2023/04/16 13:32:25;;;;;;;21.30;18.00;;;;;;;;;;5092780;28;20559;-68
2023/04/16 13:34:52;;;;;;;23.33;15.40;;;;;;;;;;5093188;28;20445;-68
2023/04/16 13:37:21;;;;;;;20.30;15.77;;;;;;;;;;5093102;28;20560;-68
2023/04/16 13:39:48;;;;;;;16.77;14.77;;;;;;;;;;5094041;28;20453;-68
2023/04/16 13:42:15;;;;;;;18.30;14.93;;;;;;;;;;5093023;28;20446;-68
2023/04/16 13:44:42;;;;;;;17.90;15.07;;;;;;;;;;5092824;28;20482;-68
2023/04/16 13:47:10;;;;;;;17.50;15.67;;;;;;;;;;5093213;28;20848;-68
2023/04/16 13:49:37;;;;;;;17.33;15.47;;;;;;;;;;5093096;28;20496;-68
2023/04/16 13:52:04;;;;;;;17.80;15.07;;;;;;;;;;5094197;28;20474;-68
2023/04/16 13:54:33;;;;;;;19.00;14.70;;;;;;;;;;5097102;28;20532;-68
2023/04/16 13:57:00;;;;;;;18.57;15.47;;;;;;;;;;5097006;28;20473;-68
2023/04/16 13:59:27;;;;;;;21.63;16.10;;;;;;;;;;5096908;28;20441;-67
2023/04/16 14:01:55;;;;;;;23.03;16.60;;;;;;;;;;5096532;28;20574;-68
2023/04/16 14:04:22;;;;;;;18.63;16.10;;;;;;;;;;5096806;28;20829;-68
2023/04/16 14:06:49;;;;;;;18.77;14.63;;;;;;;;;;5096876;28;20755;-68
2023/04/16 14:09:16;;;;;;;17.27;15.43;;;;;;;;;;5096369;28;20446;-68
2023/04/16 14:11:45;;;;;;;23.90;16.77;;;;;;;;;;5096527;28;20500;-68
2023/04/16 14:14:12;;;;;;;19.57;15.90;;;;;;;;;;5096581;28;20460;-67
2023/04/16 14:16:39;;;;;;;16.93;15.07;;;;;;;;;;5096416;28;20445;-68
2023/04/16 14:19:07;;;;;;;17.73;14.83;;;;;;;;;;5096472;28;20441;-67